sensor_id;sensor_type;location;lat;lon;timestamp;P1;durP1;ratioP1;P2;durP2;ratioP2
15049;SDS011;7622;42.724;23.250;2022-09-09T00:00:19;11.63;;;9.07;;
15049;SDS011;7622;42.724;23.250;2022-09-09T00:02:49;9.37;;;8.33;;
15049;SDS011;7622;42.724;23.250;2022-09-09T00:05:27;9.77;;;8.87;;
15049;SDS011;7622;42.724;23.250;2022-09-09T00:07:59;10.23;;;9.07;;
15049;SDS011;7622;42.724;23.250;2022-09-09T00:10:29;9.90;;;9.10;;
15049;SDS011;7622;42.724;23.250;2022-09-09T00:13:01;12.47;;;9.53;;
15049;SDS011;7622;42.724;23.250;2022-09-09T00:15:38;9.90;;;8.90;;
15049;SDS011;7622;42.724;23.250;2022-09-09T00:18:09;11.40;;;9.07;;
15049;SDS011;7622;42.724;23.250;2022-09-09T00:20:44;9.30;;;8.50;;
15049;SDS011;7622;42.724;23.250;2022-09-09T00:23:19;9.27;;;8.57;;
15049;SDS011;7622;42.724;23.250;2022-09-09T00:25:53;13.37;;;9.67;;
15049;SDS011;7622;42.724;23.250;2022-09-09T00:28:26;11.37;;;9.23;;
15049;SDS011;7622;42.724;23.250;2022-09-09T00:31:00;17.77;;;9.33;;
15049;SDS011;7622;42.724;23.250;2022-09-09T00:33:38;11.00;;;8.83;;
15049;SDS011;7622;42.724;23.250;2022-09-09T00:36:07;9.57;;;8.80;;
15049;SDS011;7622;42.724;23.250;2022-09-09T00:38:40;11.13;;;9.93;;
15049;SDS011;7622;42.724;23.250;2022-09-09T00:41:11;10.40;;;9.30;;
15049;SDS011;7622;42.724;23.250;2022-09-09T00:43:46;11.30;;;9.60;;
15049;SDS011;7622;42.724;23.250;2022-09-09T00:49:24;11.17;;;10.37;;
15049;SDS011;7622;42.724;23.250;2022-09-09T00:52:05;10.67;;;9.73;;
15049;SDS011;7622;42.724;23.250;2022-09-09T00:54:45;9.10;;;8.33;;
15049;SDS011;7622;42.724;23.250;2022-09-09T00:57:23;10.13;;;9.10;;
15049;SDS011;7622;42.724;23.250;2022-09-09T00:59:56;10.70;;;9.80;;
15049;SDS011;7622;42.724;23.250;2022-09-09T01:02:46;11.03;;;9.90;;
15049;SDS011;7622;42.724;23.250;2022-09-09T01:05:23;10.10;;;9.30;;
15049;SDS011;7622;42.724;23.250;2022-09-09T01:07:56;10.90;;;9.77;;
15049;SDS011;7622;42.724;23.250;2022-09-09T01:10:29;10.93;;;9.60;;
15049;SDS011;7622;42.724;23.250;2022-09-09T01:13:04;9.90;;;9.20;;
15049;SDS011;7622;42.724;23.250;2022-09-09T01:15:39;10.53;;;9.57;;
15049;SDS011;7622;42.724;23.250;2022-09-09T01:18:10;12.70;;;9.67;;
15049;SDS011;7622;42.724;23.250;2022-09-09T01:20:42;11.93;;;9.00;;
15049;SDS011;7622;42.724;23.250;2022-09-09T01:23:31;9.93;;;8.93;;
15049;SDS011;7622;42.724;23.250;2022-09-09T01:26:11;11.27;;;8.87;;
15049;SDS011;7622;42.724;23.250;2022-09-09T01:28:41;10.13;;;9.30;;
15049;SDS011;7622;42.724;23.250;2022-09-09T01:31:11;10.30;;;9.43;;
15049;SDS011;7622;42.724;23.250;2022-09-09T01:33:43;10.83;;;9.90;;
15049;SDS011;7622;42.724;23.250;2022-09-09T01:36:10;9.97;;;9.17;;
15049;SDS011;7622;42.724;23.250;2022-09-09T01:38:46;9.50;;;8.67;;
15049;SDS011;7622;42.724;23.250;2022-09-09T01:41:16;9.00;;;8.30;;
15049;SDS011;7622;42.724;23.250;2022-09-09T01:43:43;9.30;;;8.60;;
15049;SDS011;7622;42.724;23.250;2022-09-09T01:46:10;9.83;;;8.97;;
15049;SDS011;7622;42.724;23.250;2022-09-09T01:48:38;9.50;;;8.70;;
15049;SDS011;7622;42.724;23.250;2022-09-09T01:51:07;17.43;;;8.73;;
15049;SDS011;7622;42.724;23.250;2022-09-09T01:53:35;9.63;;;8.87;;
15049;SDS011;7622;42.724;23.250;2022-09-09T01:56:06;11.10;;;9.03;;
15049;SDS011;7622;42.724;23.250;2022-09-09T01:58:43;10.23;;;9.37;;
15049;SDS011;7622;42.724;23.250;2022-09-09T02:01:22;10.20;;;9.50;;
15049;SDS011;7622;42.724;23.250;2022-09-09T02:03:57;10.83;;;9.23;;
15049;SDS011;7622;42.724;23.250;2022-09-09T02:06:29;11.10;;;9.97;;
15049;SDS011;7622;42.724;23.250;2022-09-09T02:09:00;10.50;;;9.40;;
15049;SDS011;7622;42.724;23.250;2022-09-09T02:11:30;11.10;;;9.47;;
15049;SDS011;7622;42.724;23.250;2022-09-09T02:14:01;10.53;;;9.73;;
15049;SDS011;7622;42.724;23.250;2022-09-09T02:16:32;10.80;;;9.90;;
15049;SDS011;7622;42.724;23.250;2022-09-09T02:19:06;11.57;;;10.37;;
15049;SDS011;7622;42.724;23.250;2022-09-09T02:21:38;10.73;;;9.83;;
15049;SDS011;7622;42.724;23.250;2022-09-09T02:24:08;11.00;;;10.00;;
15049;SDS011;7622;42.724;23.250;2022-09-09T02:26:36;11.00;;;10.13;;
15049;SDS011;7622;42.724;23.250;2022-09-09T02:29:09;10.20;;;9.30;;
15049;SDS011;7622;42.724;23.250;2022-09-09T02:31:40;12.07;;;9.83;;
15049;SDS011;7622;42.724;23.250;2022-09-09T02:34:10;11.23;;;10.40;;
15049;SDS011;7622;42.724;23.250;2022-09-09T02:36:40;11.47;;;10.33;;
15049;SDS011;7622;42.724;23.250;2022-09-09T02:39:09;10.90;;;9.90;;
15049;SDS011;7622;42.724;23.250;2022-09-09T02:41:38;12.03;;;10.37;;
15049;SDS011;7622;42.724;23.250;2022-09-09T02:44:10;11.23;;;9.83;;
15049;SDS011;7622;42.724;23.250;2022-09-09T02:46:45;11.63;;;10.53;;
15049;SDS011;7622;42.724;23.250;2022-09-09T02:49:24;12.03;;;10.83;;
15049;SDS011;7622;42.724;23.250;2022-09-09T02:51:57;11.33;;;10.17;;
15049;SDS011;7622;42.724;23.250;2022-09-09T02:54:29;10.90;;;9.97;;
15049;SDS011;7622;42.724;23.250;2022-09-09T02:56:59;11.17;;;10.20;;
15049;SDS011;7622;42.724;23.250;2022-09-09T02:59:31;11.70;;;9.83;;
15049;SDS011;7622;42.724;23.250;2022-09-09T03:01:58;10.90;;;10.00;;
15049;SDS011;7622;42.724;23.250;2022-09-09T03:04:26;11.33;;;10.40;;
15049;SDS011;7622;42.724;23.250;2022-09-09T03:06:52;10.27;;;9.47;;
15049;SDS011;7622;42.724;23.250;2022-09-09T03:09:19;12.80;;;10.93;;
15049;SDS011;7622;42.724;23.250;2022-09-09T03:11:46;10.03;;;9.30;;
15049;SDS011;7622;42.724;23.250;2022-09-09T03:14:14;11.47;;;10.33;;
15049;SDS011;7622;42.724;23.250;2022-09-09T03:16:43;11.57;;;10.33;;
15049;SDS011;7622;42.724;23.250;2022-09-09T03:19:09;11.63;;;10.63;;
15049;SDS011;7622;42.724;23.250;2022-09-09T03:21:36;11.30;;;10.30;;
15049;SDS011;7622;42.724;23.250;2022-09-09T03:24:03;13.50;;;10.83;;
15049;SDS011;7622;42.724;23.250;2022-09-09T03:26:31;12.63;;;10.27;;
15049;SDS011;7622;42.724;23.250;2022-09-09T03:28:58;11.43;;;10.43;;
15049;SDS011;7622;42.724;23.250;2022-09-09T03:31:26;11.30;;;10.20;;
15049;SDS011;7622;42.724;23.250;2022-09-09T03:33:56;14.10;;;11.07;;
15049;SDS011;7622;42.724;23.250;2022-09-09T03:36:24;12.00;;;10.73;;
15049;SDS011;7622;42.724;23.250;2022-09-09T03:38:53;11.33;;;10.33;;
15049;SDS011;7622;42.724;23.250;2022-09-09T03:41:20;11.83;;;10.60;;
15049;SDS011;7622;42.724;23.250;2022-09-09T03:43:48;12.80;;;11.30;;
15049;SDS011;7622;42.724;23.250;2022-09-09T03:46:15;12.60;;;10.10;;
15049;SDS011;7622;42.724;23.250;2022-09-09T03:48:42;12.87;;;10.77;;
15049;SDS011;7622;42.724;23.250;2022-09-09T03:51:10;14.00;;;10.67;;
15049;SDS011;7622;42.724;23.250;2022-09-09T03:53:37;17.87;;;11.40;;
15049;SDS011;7622;42.724;23.250;2022-09-09T03:56:05;17.53;;;11.23;;
15049;SDS011;7622;42.724;23.250;2022-09-09T03:58:33;16.30;;;10.57;;
15049;SDS011;7622;42.724;23.250;2022-09-09T04:01:01;16.93;;;11.67;;
15049;SDS011;7622;42.724;23.250;2022-09-09T04:03:29;13.60;;;11.57;;
15049;SDS011;7622;42.724;23.250;2022-09-09T04:05:57;13.43;;;11.53;;
15049;SDS011;7622;42.724;23.250;2022-09-09T04:08:26;12.33;;;11.10;;
15049;SDS011;7622;42.724;23.250;2022-09-09T04:10:53;13.03;;;11.10;;
15049;SDS011;7622;42.724;23.250;2022-09-09T04:13:23;13.10;;;11.43;;
15049;SDS011;7622;42.724;23.250;2022-09-09T04:15:50;12.30;;;11.00;;
15049;SDS011;7622;42.724;23.250;2022-09-09T04:18:18;11.60;;;10.50;;
15049;SDS011;7622;42.724;23.250;2022-09-09T04:20:46;12.43;;;11.07;;
15049;SDS011;7622;42.724;23.250;2022-09-09T04:23:13;15.40;;;10.93;;
15049;SDS011;7622;42.724;23.250;2022-09-09T04:25:44;19.03;;;12.03;;
15049;SDS011;7622;42.724;23.250;2022-09-09T04:28:12;12.90;;;11.40;;
15049;SDS011;7622;42.724;23.250;2022-09-09T04:30:39;14.33;;;11.57;;
15049;SDS011;7622;42.724;23.250;2022-09-09T04:33:06;18.17;;;11.00;;
15049;SDS011;7622;42.724;23.250;2022-09-09T04:35:33;16.77;;;11.10;;
15049;SDS011;7622;42.724;23.250;2022-09-09T04:38:00;15.53;;;11.03;;
15049;SDS011;7622;42.724;23.250;2022-09-09T04:40:28;11.83;;;10.70;;
15049;SDS011;7622;42.724;23.250;2022-09-09T04:42:58;11.87;;;10.70;;
15049;SDS011;7622;42.724;23.250;2022-09-09T04:45:25;13.50;;;11.10;;
15049;SDS011;7622;42.724;23.250;2022-09-09T04:47:53;16.03;;;12.40;;
15049;SDS011;7622;42.724;23.250;2022-09-09T04:50:20;19.27;;;11.97;;
15049;SDS011;7622;42.724;23.250;2022-09-09T04:52:47;14.90;;;11.83;;
15049;SDS011;7622;42.724;23.250;2022-09-09T04:55:14;14.70;;;11.17;;
15049;SDS011;7622;42.724;23.250;2022-09-09T04:57:41;14.37;;;11.13;;
15049;SDS011;7622;42.724;23.250;2022-09-09T05:00:10;13.23;;;11.70;;
15049;SDS011;7622;42.724;23.250;2022-09-09T05:02:38;13.30;;;10.90;;
15049;SDS011;7622;42.724;23.250;2022-09-09T05:05:05;14.33;;;10.70;;
15049;SDS011;7622;42.724;23.250;2022-09-09T05:07:32;15.80;;;10.40;;
15049;SDS011;7622;42.724;23.250;2022-09-09T05:09:59;16.93;;;10.33;;
15049;SDS011;7622;42.724;23.250;2022-09-09T05:12:28;13.60;;;10.63;;
15049;SDS011;7622;42.724;23.250;2022-09-09T05:14:55;12.03;;;10.73;;
15049;SDS011;7622;42.724;23.250;2022-09-09T05:17:23;14.27;;;9.93;;
15049;SDS011;7622;42.724;23.250;2022-09-09T05:19:50;11.50;;;10.30;;
15049;SDS011;7622;42.724;23.250;2022-09-09T05:22:18;13.17;;;9.57;;
15049;SDS011;7622;42.724;23.250;2022-09-09T05:24:46;12.13;;;10.93;;
15049;SDS011;7622;42.724;23.250;2022-09-09T05:27:16;14.50;;;11.13;;
15049;SDS011;7622;42.724;23.250;2022-09-09T05:29:46;14.47;;;10.90;;
15049;SDS011;7622;42.724;23.250;2022-09-09T05:32:13;16.03;;;9.70;;
15049;SDS011;7622;42.724;23.250;2022-09-09T05:34:41;10.03;;;9.10;;
15049;SDS011;7622;42.724;23.250;2022-09-09T05:37:08;11.80;;;10.40;;
15049;SDS011;7622;42.724;23.250;2022-09-09T05:39:35;11.63;;;10.17;;
15049;SDS011;7622;42.724;23.250;2022-09-09T05:42:03;16.00;;;10.77;;
15049;SDS011;7622;42.724;23.250;2022-09-09T05:44:30;19.10;;;10.17;;
15049;SDS011;7622;42.724;23.250;2022-09-09T05:46:57;14.37;;;9.90;;
15049;SDS011;7622;42.724;23.250;2022-09-09T05:49:24;12.87;;;10.50;;
15049;SDS011;7622;42.724;23.250;2022-09-09T05:51:52;13.53;;;9.53;;
15049;SDS011;7622;42.724;23.250;2022-09-09T05:54:19;11.60;;;10.13;;
15049;SDS011;7622;42.724;23.250;2022-09-09T05:56:46;10.60;;;9.70;;
15049;SDS011;7622;42.724;23.250;2022-09-09T05:59:16;17.27;;;10.67;;
15049;SDS011;7622;42.724;23.250;2022-09-09T06:01:43;11.47;;;10.27;;
15049;SDS011;7622;42.724;23.250;2022-09-09T06:04:10;15.43;;;9.90;;
15049;SDS011;7622;42.724;23.250;2022-09-09T06:06:37;11.83;;;9.20;;
15049;SDS011;7622;42.724;23.250;2022-09-09T06:09:07;11.87;;;10.57;;
15049;SDS011;7622;42.724;23.250;2022-09-09T06:11:36;20.00;;;10.37;;
15049;SDS011;7622;42.724;23.250;2022-09-09T06:14:03;17.33;;;10.43;;
15049;SDS011;7622;42.724;23.250;2022-09-09T06:16:31;13.40;;;10.40;;
15049;SDS011;7622;42.724;23.250;2022-09-09T06:18:59;15.47;;;10.97;;
15049;SDS011;7622;42.724;23.250;2022-09-09T06:21:28;18.50;;;11.50;;
15049;SDS011;7622;42.724;23.250;2022-09-09T06:23:56;14.27;;;11.07;;
15049;SDS011;7622;42.724;23.250;2022-09-09T06:26:25;11.90;;;10.70;;
15049;SDS011;7622;42.724;23.250;2022-09-09T06:28:53;12.47;;;10.30;;
15049;SDS011;7622;42.724;23.250;2022-09-09T06:31:22;14.53;;;10.43;;
15049;SDS011;7622;42.724;23.250;2022-09-09T06:33:51;19.37;;;10.80;;
15049;SDS011;7622;42.724;23.250;2022-09-09T06:36:20;13.23;;;11.00;;
15049;SDS011;7622;42.724;23.250;2022-09-09T06:38:49;11.43;;;10.23;;
15049;SDS011;7622;42.724;23.250;2022-09-09T06:41:16;11.90;;;9.93;;
15049;SDS011;7622;42.724;23.250;2022-09-09T06:43:45;15.17;;;10.57;;
15049;SDS011;7622;42.724;23.250;2022-09-09T06:46:13;12.27;;;9.90;;
15049;SDS011;7622;42.724;23.250;2022-09-09T06:48:41;15.63;;;9.70;;
15049;SDS011;7622;42.724;23.250;2022-09-09T06:51:11;13.23;;;9.80;;
15049;SDS011;7622;42.724;23.250;2022-09-09T06:53:40;13.50;;;9.10;;
15049;SDS011;7622;42.724;23.250;2022-09-09T06:56:17;11.10;;;9.67;;
15049;SDS011;7622;42.724;23.250;2022-09-09T06:58:47;12.43;;;8.37;;
15049;SDS011;7622;42.724;23.250;2022-09-09T07:01:14;12.27;;;8.97;;
15049;SDS011;7622;42.724;23.250;2022-09-09T07:03:44;8.87;;;7.77;;
15049;SDS011;7622;42.724;23.250;2022-09-09T07:06:13;10.93;;;7.80;;
15049;SDS011;7622;42.724;23.250;2022-09-09T07:08:42;17.20;;;8.20;;
15049;SDS011;7622;42.724;23.250;2022-09-09T07:11:09;10.17;;;9.17;;
15049;SDS011;7622;42.724;23.250;2022-09-09T07:13:36;10.27;;;9.00;;
15049;SDS011;7622;42.724;23.250;2022-09-09T07:16:05;9.50;;;8.70;;
15049;SDS011;7622;42.724;23.250;2022-09-09T07:18:32;17.23;;;8.97;;
15049;SDS011;7622;42.724;23.250;2022-09-09T07:21:00;8.80;;;8.00;;
15049;SDS011;7622;42.724;23.250;2022-09-09T07:23:28;11.37;;;8.77;;
15049;SDS011;7622;42.724;23.250;2022-09-09T07:25:55;11.87;;;7.97;;
15049;SDS011;7622;42.724;23.250;2022-09-09T07:28:22;12.47;;;8.40;;
15049;SDS011;7622;42.724;23.250;2022-09-09T07:30:52;17.50;;;9.45;;
15049;SDS011;7622;42.724;23.250;2022-09-09T07:33:21;10.32;;;9.15;;
15049;SDS011;7622;42.724;23.250;2022-09-09T07:35:49;9.25;;;8.35;;
15049;SDS011;7622;42.724;23.250;2022-09-09T07:38:16;11.52;;;8.57;;
15049;SDS011;7622;42.724;23.250;2022-09-09T07:40:43;9.48;;;8.52;;
15049;SDS011;7622;42.724;23.250;2022-09-09T07:43:10;9.93;;;8.55;;
15049;SDS011;7622;42.724;23.250;2022-09-09T07:45:37;9.90;;;8.83;;
15049;SDS011;7622;42.724;23.250;2022-09-09T07:48:05;13.60;;;8.25;;
15049;SDS011;7622;42.724;23.250;2022-09-09T07:50:33;10.70;;;7.05;;
15049;SDS011;7622;42.724;23.250;2022-09-09T07:53:00;8.15;;;6.57;;
15049;SDS011;7622;42.724;23.250;2022-09-09T07:55:27;7.53;;;6.82;;
15049;SDS011;7622;42.724;23.250;2022-09-09T07:57:55;8.18;;;7.07;;
15049;SDS011;7622;42.724;23.250;2022-09-09T08:00:22;9.05;;;6.47;;
15049;SDS011;7622;42.724;23.250;2022-09-09T08:02:49;12.20;;;7.20;;
15049;SDS011;7622;42.724;23.250;2022-09-09T08:05:17;8.13;;;7.30;;
15049;SDS011;7622;42.724;23.250;2022-09-09T08:07:45;7.20;;;6.18;;
15049;SDS011;7622;42.724;23.250;2022-09-09T08:10:12;7.38;;;6.50;;
15049;SDS011;7622;42.724;23.250;2022-09-09T08:12:39;6.78;;;6.28;;
15049;SDS011;7622;42.724;23.250;2022-09-09T08:15:06;11.20;;;6.63;;
15049;SDS011;7622;42.724;23.250;2022-09-09T08:17:34;8.30;;;6.53;;
15049;SDS011;7622;42.724;23.250;2022-09-09T08:20:03;7.60;;;6.80;;
15049;SDS011;7622;42.724;23.250;2022-09-09T08:22:32;7.45;;;6.60;;
15049;SDS011;7622;42.724;23.250;2022-09-09T08:25:00;7.13;;;6.53;;
15049;SDS011;7622;42.724;23.250;2022-09-09T08:27:27;7.72;;;6.43;;
15049;SDS011;7622;42.724;23.250;2022-09-09T08:29:54;11.50;;;6.78;;
15049;SDS011;7622;42.724;23.250;2022-09-09T08:32:21;10.07;;;6.00;;
15049;SDS011;7622;42.724;23.250;2022-09-09T08:34:48;8.88;;;6.35;;
15049;SDS011;7622;42.724;23.250;2022-09-09T08:37:14;7.55;;;6.70;;
15049;SDS011;7622;42.724;23.250;2022-09-09T08:39:41;10.82;;;6.93;;
15049;SDS011;7622;42.724;23.250;2022-09-09T08:45:14;7.45;;;6.50;;
15049;SDS011;7622;42.724;23.250;2022-09-09T08:47:56;12.25;;;6.38;;
15049;SDS011;7622;42.724;23.250;2022-09-09T08:50:32;8.90;;;6.47;;
15049;SDS011;7622;42.724;23.250;2022-09-09T08:53:04;9.18;;;7.25;;
15049;SDS011;7622;42.724;23.250;2022-09-09T08:55:37;9.80;;;6.47;;
15049;SDS011;7622;42.724;23.250;2022-09-09T08:58:13;10.73;;;7.53;;
15049;SDS011;7622;42.724;23.250;2022-09-09T09:00:45;12.77;;;6.78;;
15049;SDS011;7622;42.724;23.250;2022-09-09T09:03:25;10.10;;;6.25;;
15049;SDS011;7622;42.724;23.250;2022-09-09T09:06:01;7.20;;;6.20;;
15049;SDS011;7622;42.724;23.250;2022-09-09T09:08:35;9.27;;;6.50;;
15049;SDS011;7622;42.724;23.250;2022-09-09T09:11:09;7.25;;;6.55;;
15049;SDS011;7622;42.724;23.250;2022-09-09T09:13:41;9.82;;;6.45;;
15049;SDS011;7622;42.724;23.250;2022-09-09T09:16:14;6.68;;;5.88;;
15049;SDS011;7622;42.724;23.250;2022-09-09T09:18:48;6.90;;;6.20;;
15049;SDS011;7622;42.724;23.250;2022-09-09T09:21:17;7.18;;;6.22;;
15049;SDS011;7622;42.724;23.250;2022-09-09T09:23:52;7.93;;;6.45;;
15049;SDS011;7622;42.724;23.250;2022-09-09T09:26:23;11.20;;;6.93;;
15049;SDS011;7622;42.724;23.250;2022-09-09T09:28:57;8.13;;;6.82;;
15049;SDS011;7622;42.724;23.250;2022-09-09T09:31:26;7.60;;;5.90;;
15049;SDS011;7622;42.724;23.250;2022-09-09T09:33:53;10.90;;;6.82;;
15049;SDS011;7622;42.724;23.250;2022-09-09T09:36:21;9.27;;;6.28;;
15049;SDS011;7622;42.724;23.250;2022-09-09T09:38:52;6.60;;;6.00;;
15049;SDS011;7622;42.724;23.250;2022-09-09T09:41:31;11.63;;;6.95;;
15049;SDS011;7622;42.724;23.250;2022-09-09T09:44:01;12.88;;;6.65;;
15049;SDS011;7622;42.724;23.250;2022-09-09T09:46:29;9.85;;;6.90;;
15049;SDS011;7622;42.724;23.250;2022-09-09T09:48:56;8.10;;;6.88;;
15049;SDS011;7622;42.724;23.250;2022-09-09T09:51:24;9.35;;;6.55;;
15049;SDS011;7622;42.724;23.250;2022-09-09T09:53:52;10.20;;;6.63;;
15049;SDS011;7622;42.724;23.250;2022-09-09T09:56:26;7.55;;;6.82;;
15049;SDS011;7622;42.724;23.250;2022-09-09T09:58:54;7.63;;;6.82;;
15049;SDS011;7622;42.724;23.250;2022-09-09T10:01:23;6.70;;;6.05;;
15049;SDS011;7622;42.724;23.250;2022-09-09T10:03:53;10.90;;;7.18;;
15049;SDS011;7622;42.724;23.250;2022-09-09T10:06:29;9.02;;;7.00;;
15049;SDS011;7622;42.724;23.250;2022-09-09T10:08:57;9.27;;;6.68;;
15049;SDS011;7622;42.724;23.250;2022-09-09T10:11:30;19.42;;;7.00;;
15049;SDS011;7622;42.724;23.250;2022-09-09T10:14:13;11.35;;;7.07;;
15049;SDS011;7622;42.724;23.250;2022-09-09T10:16:51;9.75;;;6.18;;
15049;SDS011;7622;42.724;23.250;2022-09-09T10:19:31;13.38;;;6.57;;
15049;SDS011;7622;42.724;23.250;2022-09-09T10:22:02;8.35;;;7.18;;
15049;SDS011;7622;42.724;23.250;2022-09-09T10:24:39;8.18;;;6.70;;
15049;SDS011;7622;42.724;23.250;2022-09-09T10:27:22;13.20;;;6.90;;
15049;SDS011;7622;42.724;23.250;2022-09-09T10:30:02;7.53;;;6.88;;
15049;SDS011;7622;42.724;23.250;2022-09-09T10:32:38;14.63;;;7.18;;
15049;SDS011;7622;42.724;23.250;2022-09-09T10:35:12;12.43;;;7.18;;
15049;SDS011;7622;42.724;23.250;2022-09-09T10:43:57;10.20;;;7.18;;
15049;SDS011;7622;42.724;23.250;2022-09-09T10:46:47;16.63;;;8.30;;
15049;SDS011;7622;42.724;23.250;2022-09-09T10:49:30;15.35;;;8.10;;
15049;SDS011;7622;42.724;23.250;2022-09-09T10:52:12;19.83;;;7.00;;
15049;SDS011;7622;42.724;23.250;2022-09-09T10:54:48;8.03;;;7.30;;
15049;SDS011;7622;42.724;23.250;2022-09-09T10:57:25;12.17;;;7.57;;
15049;SDS011;7622;42.724;23.250;2022-09-09T10:59:58;16.48;;;7.78;;
15049;SDS011;7622;42.724;23.250;2022-09-09T11:02:30;8.73;;;6.97;;
15049;SDS011;7622;42.724;23.250;2022-09-09T11:04:59;9.33;;;7.77;;
15049;SDS011;7622;42.724;23.250;2022-09-09T11:07:34;14.33;;;7.77;;
15049;SDS011;7622;42.724;23.250;2022-09-09T11:10:07;14.43;;;6.87;;
15049;SDS011;7622;42.724;23.250;2022-09-09T11:12:44;10.43;;;6.77;;
15049;SDS011;7622;42.724;23.250;2022-09-09T11:15:14;9.07;;;6.83;;
15049;SDS011;7622;42.724;23.250;2022-09-09T11:17:46;9.30;;;7.00;;
15049;SDS011;7622;42.724;23.250;2022-09-09T11:20:18;11.00;;;7.10;;
15049;SDS011;7622;42.724;23.250;2022-09-09T11:22:46;12.18;;;7.43;;
15049;SDS011;7622;42.724;23.250;2022-09-09T11:25:16;7.13;;;6.43;;
15049;SDS011;7622;42.724;23.250;2022-09-09T11:27:53;8.53;;;7.53;;
15049;SDS011;7622;42.724;23.250;2022-09-09T11:30:30;10.05;;;6.88;;
15049;SDS011;7622;42.724;23.250;2022-09-09T11:33:23;10.48;;;7.07;;
15049;SDS011;7622;42.724;23.250;2022-09-09T11:36:24;11.40;;;7.60;;
15049;SDS011;7622;42.724;23.250;2022-09-09T11:39:06;9.25;;;7.25;;
15049;SDS011;7622;42.724;23.250;2022-09-09T11:41:50;8.50;;;6.80;;
15049;SDS011;7622;42.724;23.250;2022-09-09T11:44:17;12.40;;;6.40;;
15049;SDS011;7622;42.724;23.250;2022-09-09T11:46:50;8.10;;;7.28;;
15049;SDS011;7622;42.724;23.250;2022-09-09T11:49:25;13.32;;;7.72;;
15049;SDS011;7622;42.724;23.250;2022-09-09T11:51:55;8.32;;;7.25;;
15049;SDS011;7622;42.724;23.250;2022-09-09T11:54:27;9.68;;;6.90;;
15049;SDS011;7622;42.724;23.250;2022-09-09T11:56:56;10.02;;;6.95;;
15049;SDS011;7622;42.724;23.250;2022-09-09T11:59:23;10.65;;;6.55;;
15049;SDS011;7622;42.724;23.250;2022-09-09T12:01:54;7.47;;;6.50;;
15049;SDS011;7622;42.724;23.250;2022-09-09T12:04:27;8.48;;;7.47;;
15049;SDS011;7622;42.724;23.250;2022-09-09T12:06:59;12.10;;;7.35;;
15049;SDS011;7622;42.724;23.250;2022-09-09T12:09:30;9.88;;;7.28;;
15049;SDS011;7622;42.724;23.250;2022-09-09T12:14:56;8.52;;;7.05;;
15049;SDS011;7622;42.724;23.250;2022-09-09T12:17:28;8.98;;;7.40;;
15049;SDS011;7622;42.724;23.250;2022-09-09T12:20:00;9.98;;;6.95;;
15049;SDS011;7622;42.724;23.250;2022-09-09T12:22:35;12.50;;;7.75;;
15049;SDS011;7622;42.724;23.250;2022-09-09T12:25:12;8.13;;;7.28;;
15049;SDS011;7622;42.724;23.250;2022-09-09T12:27:50;7.85;;;7.05;;
15049;SDS011;7622;42.724;23.250;2022-09-09T12:30:28;8.02;;;7.18;;
15049;SDS011;7622;42.724;23.250;2022-09-09T12:33:00;29.85;;;8.10;;
15049;SDS011;7622;42.724;23.250;2022-09-09T12:35:28;8.75;;;7.47;;
15049;SDS011;7622;42.724;23.250;2022-09-09T12:37:57;9.45;;;7.22;;
15049;SDS011;7622;42.724;23.250;2022-09-09T12:40:26;15.18;;;7.97;;
15049;SDS011;7622;42.724;23.250;2022-09-09T12:42:54;11.27;;;7.65;;
15049;SDS011;7622;42.724;23.250;2022-09-09T12:45:22;11.48;;;7.18;;
15049;SDS011;7622;42.724;23.250;2022-09-09T12:47:51;13.68;;;7.65;;
15049;SDS011;7622;42.724;23.250;2022-09-09T12:50:22;8.25;;;7.18;;
15049;SDS011;7622;42.724;23.250;2022-09-09T12:52:52;17.73;;;7.20;;
15049;SDS011;7622;42.724;23.250;2022-09-09T12:55:24;9.50;;;6.03;;
15049;SDS011;7622;42.724;23.250;2022-09-09T12:57:55;6.72;;;6.00;;
15049;SDS011;7622;42.724;23.250;2022-09-09T13:00:23;8.43;;;6.15;;
15049;SDS011;7622;42.724;23.250;2022-09-09T13:02:52;9.40;;;5.85;;
15049;SDS011;7622;42.724;23.250;2022-09-09T13:05:21;6.53;;;5.78;;
15049;SDS011;7622;42.724;23.250;2022-09-09T13:07:49;7.13;;;5.93;;
15049;SDS011;7622;42.724;23.250;2022-09-09T13:10:20;6.95;;;5.68;;
15049;SDS011;7622;42.724;23.250;2022-09-09T13:12:53;11.15;;;6.35;;
15049;SDS011;7622;42.724;23.250;2022-09-09T13:15:21;6.85;;;4.93;;
15049;SDS011;7622;42.724;23.250;2022-09-09T13:17:55;7.10;;;5.20;;
15049;SDS011;7622;42.724;23.250;2022-09-09T13:20:26;10.43;;;5.60;;
15049;SDS011;7622;42.724;23.250;2022-09-09T13:22:54;15.95;;;6.20;;
15049;SDS011;7622;42.724;23.250;2022-09-09T13:25:25;9.40;;;5.97;;
15049;SDS011;7622;42.724;23.250;2022-09-09T13:27:57;7.13;;;5.60;;
15049;SDS011;7622;42.724;23.250;2022-09-09T13:30:26;8.25;;;6.70;;
15049;SDS011;7622;42.724;23.250;2022-09-09T13:32:59;11.70;;;5.95;;
15049;SDS011;7622;42.724;23.250;2022-09-09T13:35:27;6.40;;;5.78;;
15049;SDS011;7622;42.724;23.250;2022-09-09T13:37:54;11.52;;;6.10;;
15049;SDS011;7622;42.724;23.250;2022-09-09T13:40:22;8.57;;;6.10;;
15049;SDS011;7622;42.724;23.250;2022-09-09T13:42:52;9.38;;;6.40;;
15049;SDS011;7622;42.724;23.250;2022-09-09T13:45:23;6.97;;;6.18;;
15049;SDS011;7622;42.724;23.250;2022-09-09T13:47:51;8.93;;;6.50;;
15049;SDS011;7622;42.724;23.250;2022-09-09T13:50:20;9.90;;;5.95;;
15049;SDS011;7622;42.724;23.250;2022-09-09T13:52:49;14.27;;;6.72;;
15049;SDS011;7622;42.724;23.250;2022-09-09T13:55:16;15.90;;;6.05;;
15049;SDS011;7622;42.724;23.250;2022-09-09T13:57:51;6.10;;;5.50;;
15049;SDS011;7622;42.724;23.250;2022-09-09T14:00:19;6.60;;;5.87;;
15049;SDS011;7622;42.724;23.250;2022-09-09T14:02:46;11.67;;;5.57;;
15049;SDS011;7622;42.724;23.250;2022-09-09T14:05:13;7.60;;;6.10;;
15049;SDS011;7622;42.724;23.250;2022-09-09T14:07:41;8.07;;;5.37;;
15049;SDS011;7622;42.724;23.250;2022-09-09T14:10:09;8.20;;;5.57;;
15049;SDS011;7622;42.724;23.250;2022-09-09T14:12:37;9.80;;;5.80;;
15049;SDS011;7622;42.724;23.250;2022-09-09T14:15:06;10.70;;;6.25;;
15049;SDS011;7622;42.724;23.250;2022-09-09T14:17:35;10.93;;;5.97;;
15049;SDS011;7622;42.724;23.250;2022-09-09T14:20:02;9.07;;;6.00;;
15049;SDS011;7622;42.724;23.250;2022-09-09T14:22:33;12.25;;;5.85;;
15049;SDS011;7622;42.724;23.250;2022-09-09T14:25:00;5.97;;;5.28;;
15049;SDS011;7622;42.724;23.250;2022-09-09T14:27:27;8.48;;;5.25;;
15049;SDS011;7622;42.724;23.250;2022-09-09T14:29:55;7.07;;;5.85;;
15049;SDS011;7622;42.724;23.250;2022-09-09T14:32:24;8.18;;;5.40;;
15049;SDS011;7622;42.724;23.250;2022-09-09T14:34:50;7.30;;;5.28;;
15049;SDS011;7622;42.724;23.250;2022-09-09T14:37:17;8.57;;;5.85;;
15049;SDS011;7622;42.724;23.250;2022-09-09T14:39:45;9.40;;;6.03;;
15049;SDS011;7622;42.724;23.250;2022-09-09T14:42:12;11.38;;;6.05;;
15049;SDS011;7622;42.724;23.250;2022-09-09T14:44:40;7.18;;;5.35;;
15049;SDS011;7622;42.724;23.250;2022-09-09T14:47:07;14.52;;;6.80;;
15049;SDS011;7622;42.724;23.250;2022-09-09T14:49:35;13.48;;;5.95;;
15049;SDS011;7622;42.724;23.250;2022-09-09T14:52:03;9.25;;;6.60;;
15049;SDS011;7622;42.724;23.250;2022-09-09T14:54:31;11.85;;;6.95;;
15049;SDS011;7622;42.724;23.250;2022-09-09T14:56:58;13.93;;;6.65;;
15049;SDS011;7622;42.724;23.250;2022-09-09T14:59:25;10.18;;;6.18;;
15049;SDS011;7622;42.724;23.250;2022-09-09T15:01:51;9.35;;;6.03;;
15049;SDS011;7622;42.724;23.250;2022-09-09T15:04:18;13.53;;;6.90;;
15049;SDS011;7622;42.724;23.250;2022-09-09T15:06:51;9.18;;;6.78;;
15049;SDS011;7622;42.724;23.250;2022-09-09T15:09:18;9.13;;;5.93;;